createdAt,value
2024-02-01T00:00:58.444Z,66.54
2024-02-01T00:03:29.501Z,66.44
2024-02-01T00:06:00.639Z,66.67
2024-02-01T00:08:31.839Z,66.87
2024-02-01T00:11:02.863Z,67.07
2024-02-01T00:13:33.890Z,67.36
2024-02-01T00:16:05.094Z,67.42
2024-02-01T00:18:36.336Z,67.54
2024-02-01T00:21:07.993Z,67.70
2024-02-01T00:23:39.107Z,67.68
2024-02-01T00:26:10.120Z,68.07
2024-02-01T00:28:41.189Z,67.76
2024-02-01T00:31:12.224Z,68.21
2024-02-01T00:33:43.731Z,68.06
2024-02-01T00:36:15.921Z,68.00
2024-02-01T00:38:47.086Z,68.10
2024-02-01T00:41:19.118Z,68.01
2024-02-01T00:43:50.297Z,67.74
2024-02-01T00:46:21.635Z,67.63
2024-02-01T00:48:52.822Z,67.37
2024-02-01T00:51:24.053Z,67.30
2024-02-01T00:53:55.069Z,67.48
2024-02-01T00:56:26.127Z,67.59
2024-02-01T00:58:57.139Z,67.29
2024-02-01T01:01:28.477Z,67.47
2024-02-01T01:03:59.588Z,67.45
2024-02-01T01:06:30.694Z,67.49
2024-02-01T01:09:02.307Z,67.86
2024-02-01T01:11:33.903Z,67.98
2024-02-01T01:14:05.067Z,67.94
2024-02-01T01:16:36.072Z,68.35
2024-02-01T01:19:07.392Z,68.26
2024-02-01T01:21:38.640Z,68.13
2024-02-01T01:24:09.959Z,68.48
2024-02-01T01:26:41.138Z,68.47
2024-02-01T01:29:12.317Z,68.29
2024-02-01T01:31:44.101Z,68.25
2024-02-01T01:34:15.327Z,68.06
2024-02-01T01:36:46.456Z,68.25
2024-02-01T01:39:17.501Z,67.94
2024-02-01T01:41:48.788Z,68.09
2024-02-01T01:44:19.821Z,67.79
2024-02-01T01:46:51.088Z,67.97
2024-02-01T01:49:22.817Z,67.86
2024-02-01T01:51:54.557Z,67.99
2024-02-01T01:54:27.613Z,67.91
2024-02-01T01:56:59.670Z,68.58
2024-02-01T01:59:31.693Z,68.25
2024-02-01T02:02:04.025Z,68.29
2024-02-01T02:04:35.145Z,68.28
2024-02-01T02:07:06.579Z,68.62
2024-02-01T02:09:37.602Z,68.53
2024-02-01T02:12:11.857Z,68.82
2024-02-01T02:14:42.991Z,69.10
2024-02-01T02:17:14.062Z,69.26
2024-02-01T02:19:45.130Z,68.98
2024-02-01T02:22:16.741Z,68.95
2024-02-01T02:24:47.769Z,68.77
2024-02-01T02:27:21.593Z,69.05
2024-02-01T02:29:52.645Z,68.85
2024-02-01T02:32:24.540Z,68.85
2024-02-01T02:34:55.680Z,68.74
2024-02-01T02:37:26.712Z,68.83
2024-02-01T02:39:57.717Z,68.60
2024-02-01T02:42:28.776Z,68.54
2024-02-01T02:45:00.052Z,68.42
2024-02-01T02:47:31.194Z,68.13
2024-02-01T02:50:02.310Z,68.09
2024-02-01T02:52:33.313Z,68.45
2024-02-01T02:55:04.561Z,68.76
2024-02-01T02:57:36.211Z,68.58
2024-02-01T03:00:11.587Z,68.57
2024-02-01T03:02:43.466Z,68.56
2024-02-01T03:05:16.522Z,68.82
2024-02-01T03:07:47.911Z,69.05
2024-02-01T03:10:19.905Z,68.95
2024-02-01T03:12:52.616Z,68.86
2024-02-01T03:15:23.700Z,69.21
2024-02-01T03:17:54.948Z,69.21
2024-02-01T03:20:26.578Z,69.21
2024-02-01T03:22:57.789Z,68.89
2024-02-01T03:25:31.895Z,68.83
2024-02-01T03:28:05.857Z,69.13
2024-02-01T03:30:39.181Z,69.29
2024-02-01T03:33:10.253Z,69.16
2024-02-01T03:35:41.332Z,69.17
2024-02-01T03:38:16.743Z,69.26
2024-02-01T03:40:48.106Z,69.35
2024-02-01T03:43:19.128Z,69.28
2024-02-01T03:45:51.540Z,69.49
2024-02-01T03:48:22.709Z,69.83
2024-02-01T03:50:54.569Z,69.71
2024-02-01T03:53:25.622Z,69.55
2024-02-01T03:55:56.768Z,70.07
2024-02-01T03:58:28.556Z,70.00
2024-02-01T04:01:01.579Z,70.02
2024-02-01T04:03:32.879Z,70.32
2024-02-01T04:06:04.013Z,69.89
2024-02-01T04:08:35.102Z,70.07
2024-02-01T04:11:06.201Z,69.91
2024-02-01T04:13:37.194Z,69.62
2024-02-01T04:16:09.414Z,69.61
2024-02-01T04:18:40.688Z,69.42
2024-02-01T04:21:12.905Z,69.28
2024-02-01T04:23:43.990Z,69.15
2024-02-01T04:26:17.114Z,69.14
2024-02-01T04:28:53.429Z,69.50
2024-02-01T04:31:24.796Z,69.68
2024-02-01T04:33:59.397Z,69.61
2024-02-01T04:36:31.208Z,69.51
2024-02-01T04:39:04.894Z,69.25
2024-02-01T04:41:36.134Z,69.51
2024-02-01T04:44:09.588Z,69.56
2024-02-01T04:46:40.589Z,69.48
2024-02-01T04:49:14.788Z,69.48
2024-02-01T04:51:46.016Z,69.85
2024-02-01T04:54:17.088Z,70.06
2024-02-01T04:56:48.175Z,69.96
2024-02-01T04:59:19.197Z,69.72
2024-02-01T05:01:50.294Z,70.05
2024-02-01T05:04:21.452Z,70.02
2024-02-01T05:06:52.848Z,70.04
2024-02-01T05:09:27.470Z,69.67
2024-02-01T05:11:58.974Z,69.61
2024-02-01T05:14:30.026Z,69.89
2024-02-01T05:17:01.163Z,69.73
2024-02-01T05:19:32.457Z,69.68
2024-02-01T05:22:03.597Z,70.03
2024-02-01T05:24:34.614Z,69.97
2024-02-01T05:27:09.846Z,70.09
2024-02-01T05:29:51.198Z,70.18
2024-02-01T05:32:22.497Z,70.18
2024-02-01T05:34:53.788Z,70.23
2024-02-01T05:37:24.748Z,70.19
2024-02-01T05:39:56.600Z,70.17
2024-02-01T05:42:28.336Z,70.01
2024-02-01T05:44:59.768Z,70.17
2024-02-01T05:47:34.009Z,71.12
2024-02-01T05:50:05.944Z,71.03
2024-02-01T05:52:39.437Z,71.00
2024-02-01T05:55:14.633Z,70.70
2024-02-01T05:57:45.882Z,71.26
2024-02-01T06:00:24.464Z,71.32
2024-02-01T06:02:56.423Z,71.25
2024-02-01T06:05:27.602Z,70.97
2024-02-01T06:07:58.578Z,70.88
2024-02-01T06:10:29.592Z,70.94
2024-02-01T06:13:01.034Z,70.71
2024-02-01T06:15:32.550Z,70.99
2024-02-01T06:18:03.717Z,70.92
2024-02-01T06:20:36.105Z,70.82
2024-02-01T06:23:07.929Z,70.80
2024-02-01T06:25:40.088Z,70.77
2024-02-01T06:28:12.301Z,71.17
2024-02-01T06:30:43.818Z,71.65
2024-02-01T06:33:14.912Z,71.46
2024-02-01T06:35:46.766Z,71.76
2024-02-01T06:38:24.538Z,71.20
2024-02-01T06:41:08.756Z,71.09
2024-02-01T06:44:03.233Z,70.73
2024-02-01T06:47:02.472Z,71.62
2024-02-01T06:50:01.246Z,71.44
2024-02-01T06:52:40.947Z,71.44
2024-02-01T06:55:45.349Z,71.19
2024-02-01T06:58:17.710Z,71.14
2024-02-01T07:01:03.761Z,71.23
2024-02-01T07:03:46.301Z,71.26
2024-02-01T07:06:29.936Z,71.17
2024-02-01T07:09:18.585Z,71.17
2024-02-01T07:12:11.381Z,70.87
2024-02-01T07:14:49.950Z,70.90
2024-02-01T07:17:29.594Z,71.28
2024-02-01T07:20:05.390Z,71.22
2024-02-01T07:22:51.496Z,71.30
2024-02-01T07:25:38.356Z,71.48
2024-02-01T07:28:27.103Z,71.43
2024-02-01T07:31:15.857Z,71.91
2024-02-01T07:34:04.695Z,71.86
2024-02-01T07:36:55.771Z,71.85
2024-02-01T07:39:44.875Z,71.73
2024-02-01T07:42:33.594Z,71.56
2024-02-01T07:45:22.560Z,71.27
2024-02-01T07:48:11.481Z,71.14
2024-02-01T07:50:59.994Z,70.90
2024-02-01T07:53:48.425Z,70.61
2024-02-01T07:56:36.002Z,70.43
2024-02-01T07:59:11.746Z,70.74
2024-02-01T08:02:03.292Z,70.56
2024-02-01T08:04:48.398Z,70.19
2024-02-01T08:07:36.799Z,70.12
2024-02-01T08:10:10.336Z,69.86
2024-02-01T08:12:41.578Z,69.92
2024-02-01T08:15:20.290Z,70.27
2024-02-01T08:17:53.586Z,70.29
2024-02-01T08:20:24.872Z,69.95
2024-02-01T08:22:56.066Z,69.61
2024-02-01T08:25:27.073Z,69.65
2024-02-01T08:27:58.104Z,69.88
2024-02-01T08:30:32.985Z,69.48
2024-02-01T08:33:06.041Z,69.27
2024-02-01T08:35:38.811Z,69.15
2024-02-01T08:38:10.887Z,68.70
2024-02-01T08:40:42.562Z,71.86
2024-02-01T08:43:15.527Z,79.87
2024-02-01T08:45:47.676Z,74.31
2024-02-01T08:48:19.901Z,70.95
2024-02-01T08:50:53.908Z,71.20
2024-02-01T08:53:24.966Z,69.27
2024-02-01T08:55:56.224Z,68.07
2024-02-01T08:58:29.097Z,66.93
2024-02-01T09:01:00.133Z,66.38
2024-02-01T09:03:31.747Z,66.46
2024-02-01T09:06:16.911Z,66.20
2024-02-01T09:08:48.185Z,65.80
2024-02-01T09:11:19.986Z,65.21
2024-02-01T09:13:52.438Z,64.88
2024-02-01T09:16:32.481Z,64.83
2024-02-01T09:19:04.505Z,64.86
2024-02-01T09:21:36.202Z,64.44
2024-02-01T09:24:08.333Z,64.38
2024-02-01T09:26:42.716Z,64.33
2024-02-01T09:29:13.941Z,64.29
2024-02-01T09:31:45.928Z,64.03
2024-02-01T09:34:17.850Z,63.91
2024-02-01T09:36:52.256Z,63.58
2024-02-01T09:39:23.436Z,63.05
2024-02-01T09:41:56.078Z,62.30
2024-02-01T09:44:28.129Z,61.79
2024-02-01T09:47:05.935Z,61.78
2024-02-01T09:49:39.687Z,61.65
2024-02-01T09:52:11.160Z,61.22
2024-02-01T09:54:44.932Z,61.21
2024-02-01T09:57:16.963Z,60.91
2024-02-01T09:59:48.133Z,60.38
2024-02-01T10:02:19.797Z,59.83
2024-02-01T10:04:52.701Z,59.15
2024-02-01T10:07:23.928Z,58.71
2024-02-01T10:09:55.753Z,58.62
2024-02-01T10:12:27.658Z,58.17
2024-02-01T10:14:59.198Z,57.91
2024-02-01T10:17:30.362Z,57.20
2024-02-01T10:20:01.920Z,56.44
2024-02-01T10:22:34.532Z,55.83
2024-02-01T10:25:05.976Z,55.35
2024-02-01T10:27:41.623Z,54.80
2024-02-01T10:30:14.469Z,54.55
2024-02-01T10:32:48.915Z,53.89
2024-02-01T10:35:21.299Z,53.65
2024-02-01T10:37:55.703Z,53.50
2024-02-01T10:40:32.193Z,53.48
2024-02-01T10:43:03.979Z,53.26
2024-02-01T10:45:38.219Z,53.18
2024-02-01T10:48:14.942Z,53.12
2024-02-01T10:50:46.953Z,53.24
2024-02-01T10:53:19.036Z,53.87
2024-02-01T10:55:51.547Z,54.24
2024-02-01T10:58:23.373Z,53.73
2024-02-01T11:00:57.439Z,53.66
2024-02-01T11:03:30.916Z,53.85
2024-02-01T11:06:02.497Z,56.09
2024-02-01T11:08:39.887Z,55.85
2024-02-01T11:11:18.504Z,55.69
2024-02-01T11:14:10.426Z,55.80
2024-02-01T11:16:43.064Z,55.18
2024-02-01T11:19:20.210Z,55.15
2024-02-01T11:21:52.795Z,55.88
2024-02-01T11:24:26.273Z,55.37
2024-02-01T11:26:59.340Z,55.93
2024-02-01T11:29:36.108Z,55.91
2024-02-01T11:32:06.958Z,56.11
2024-02-01T11:34:38.406Z,56.08
2024-02-01T11:37:12.525Z,56.63
2024-02-01T11:39:45.325Z,57.23
2024-02-01T11:42:23.998Z,57.19
2024-02-01T11:45:05.728Z,57.19
2024-02-01T11:47:37.745Z,57.18
2024-02-01T11:50:11.233Z,56.78
2024-02-01T11:52:46.214Z,56.65
2024-02-01T11:55:18.911Z,56.74
2024-02-01T11:57:58.348Z,56.48
2024-02-01T12:00:43.974Z,56.32
2024-02-01T12:03:21.786Z,56.20
2024-02-01T12:05:54.378Z,55.99
2024-02-01T12:08:25.690Z,56.41
2024-02-01T12:10:57.134Z,56.74
2024-02-01T12:13:28.245Z,56.66
2024-02-01T12:15:59.637Z,56.65
2024-02-01T12:18:32.966Z,56.87
2024-02-01T12:21:04.303Z,57.05
2024-02-01T12:23:36.066Z,57.14
2024-02-01T12:26:07.746Z,56.96
2024-02-01T12:28:39.146Z,57.35
2024-02-01T12:31:11.437Z,57.47
2024-02-01T12:33:43.505Z,57.63
2024-02-01T12:36:14.743Z,57.27
2024-02-01T12:38:46.767Z,57.10
2024-02-01T12:41:18.601Z,57.45
2024-02-01T12:43:53.186Z,57.20
2024-02-01T12:46:25.916Z,57.08
2024-02-01T12:48:57.373Z,57.12
2024-02-01T12:51:29.480Z,57.29
2024-02-01T12:54:04.069Z,57.39
2024-02-01T12:56:36.972Z,57.32
2024-02-01T12:59:11.881Z,57.47
2024-02-01T13:01:43.320Z,57.69
2024-02-01T13:04:14.350Z,57.57
2024-02-01T13:06:46.512Z,57.28
2024-02-01T13:09:30.420Z,56.90
2024-02-01T13:12:01.981Z,56.55
2024-02-01T13:14:35.668Z,56.37
2024-02-01T13:17:12.783Z,56.26
2024-02-01T13:19:43.946Z,56.49
2024-02-01T13:22:15.020Z,56.75
2024-02-01T13:24:47.795Z,56.83
2024-02-01T13:27:19.060Z,56.83
2024-02-01T13:29:50.132Z,56.74
2024-02-01T13:32:21.364Z,56.98
2024-02-01T13:34:52.675Z,57.03
2024-02-01T13:37:23.935Z,57.37
2024-02-01T13:39:55.113Z,58.02
2024-02-01T13:42:26.297Z,58.30
2024-02-01T13:44:57.492Z,58.46
2024-02-01T13:47:28.656Z,58.64
2024-02-01T13:50:00.188Z,58.31
2024-02-01T13:52:31.526Z,58.53
2024-02-01T13:55:02.601Z,58.71
2024-02-01T13:57:34.780Z,58.65
2024-02-01T14:00:16.290Z,58.75
2024-02-01T14:02:49.448Z,58.91
2024-02-01T14:05:22.871Z,58.94
2024-02-01T14:07:55.115Z,58.99
2024-02-01T14:10:27.147Z,59.03
2024-02-01T14:12:58.645Z,59.28
2024-02-01T14:15:29.688Z,59.25
2024-02-01T14:18:02.334Z,59.58
2024-02-01T14:20:33.757Z,59.50
2024-02-01T14:23:04.838Z,59.59
2024-02-01T14:25:36.007Z,59.37
2024-02-01T14:28:07.661Z,59.65
2024-02-01T14:30:38.804Z,59.82
2024-02-01T14:33:10.198Z,59.60
2024-02-01T14:35:41.373Z,59.89
2024-02-01T14:38:12.391Z,60.06
2024-02-01T14:40:44.210Z,59.99
2024-02-01T14:43:15.238Z,59.58
2024-02-01T14:45:46.984Z,59.93
2024-02-01T14:48:18.248Z,60.09
2024-02-01T14:50:49.376Z,59.85
2024-02-01T14:53:20.410Z,60.11
2024-02-01T14:55:54.465Z,60.30
2024-02-01T14:58:25.645Z,60.51
2024-02-01T15:00:58.241Z,60.45
2024-02-01T15:03:29.512Z,60.63
2024-02-01T15:06:00.760Z,60.77
2024-02-01T15:08:32.502Z,61.32
2024-02-01T15:11:03.567Z,61.03
2024-02-01T15:13:34.583Z,60.88
2024-02-01T15:16:09.140Z,61.01
2024-02-01T15:18:41.937Z,60.88
2024-02-01T15:21:14.402Z,60.87
2024-02-01T15:23:46.533Z,60.84
2024-02-01T15:26:17.820Z,61.10
2024-02-01T15:28:48.865Z,61.19
2024-02-01T15:31:23.518Z,61.26
2024-02-01T15:33:55.328Z,61.57
2024-02-01T15:36:26.884Z,61.75
2024-02-01T15:38:57.951Z,61.89
2024-02-01T15:41:29.530Z,61.87
2024-02-01T15:44:01.743Z,61.90
2024-02-01T15:46:34.006Z,62.09
2024-02-01T15:49:05.333Z,62.24
2024-02-01T15:51:36.489Z,62.48
2024-02-01T15:54:07.812Z,62.50
2024-02-01T15:56:39.783Z,62.59
2024-02-01T15:59:10.817Z,62.60
2024-02-01T16:01:41.918Z,62.86
2024-02-01T16:04:13.202Z,62.72
2024-02-01T16:06:44.479Z,62.80
2024-02-01T16:09:15.930Z,63.00
2024-02-01T16:11:47.653Z,63.06
2024-02-01T16:14:23.491Z,63.24
2024-02-01T16:16:55.542Z,63.01
2024-02-01T16:19:42.912Z,62.96
2024-02-01T16:22:14.378Z,62.84
2024-02-01T16:25:02.098Z,62.88
2024-02-01T16:27:59.692Z,62.71
2024-02-01T16:30:57.406Z,62.69
2024-02-01T16:33:32.222Z,62.64
2024-02-01T16:36:07.947Z,62.79
2024-02-01T16:38:45.343Z,62.86
2024-02-01T16:41:32.698Z,62.73
2024-02-01T16:44:04.380Z,63.13
2024-02-01T16:46:49.716Z,63.22
2024-02-01T16:49:22.967Z,63.34
2024-02-01T16:51:54.798Z,63.43
2024-02-01T16:54:25.983Z,63.35
2024-02-01T16:56:59.897Z,63.46
2024-02-01T16:59:31.946Z,63.61
2024-02-01T17:02:03.053Z,63.61
2024-02-01T17:04:41.039Z,63.53
2024-02-01T17:07:25.442Z,63.53
2024-02-01T17:10:00.886Z,63.58
2024-02-01T17:12:32.592Z,63.62
2024-02-01T17:15:05.250Z,63.53
2024-02-01T17:17:39.964Z,63.49
2024-02-01T17:20:13.685Z,63.33
2024-02-01T17:22:46.438Z,63.48
2024-02-01T17:25:58.872Z,63.54
2024-02-01T17:28:40.441Z,63.72
2024-02-01T17:31:16.386Z,63.89
2024-02-01T17:33:57.796Z,63.91
2024-02-01T17:36:33.774Z,64.18
2024-02-01T17:39:07.949Z,64.39
2024-02-01T17:41:45.310Z,64.50
2024-02-01T17:44:35.442Z,64.95
2024-02-01T17:47:09.236Z,64.82
2024-02-01T17:49:49.839Z,65.15
2024-02-01T17:52:52.076Z,65.39
2024-02-01T17:55:28.942Z,65.74
2024-02-01T17:57:59.527Z,65.71
2024-02-01T18:00:32.116Z,65.50
2024-02-01T18:03:04.861Z,65.40
2024-02-01T18:05:36.207Z,65.67
2024-02-01T18:08:09.615Z,65.73
2024-02-01T18:10:45.764Z,65.96
2024-02-01T18:13:16.995Z,65.95
2024-02-01T18:16:08.719Z,66.02
2024-02-01T18:18:43.011Z,66.06
2024-02-01T18:21:23.532Z,65.99
2024-02-01T18:23:56.852Z,66.32
2024-02-01T18:26:29.378Z,66.32
2024-02-01T18:29:00.622Z,66.34
2024-02-01T18:31:31.896Z,66.68
2024-02-01T18:34:06.270Z,66.92
2024-02-01T18:36:40.080Z,67.32
2024-02-01T18:39:14.799Z,67.32
2024-02-01T18:41:51.532Z,67.61
2024-02-01T18:44:28.914Z,67.51
2024-02-01T18:47:02.743Z,67.34
2024-02-01T18:49:37.725Z,67.93
2024-02-01T18:52:10.394Z,67.50
2024-02-01T18:54:41.487Z,67.39
2024-02-01T18:57:22.320Z,67.59
2024-02-01T18:59:58.234Z,68.09
2024-02-01T19:02:54.559Z,68.04
2024-02-01T19:05:27.357Z,68.02
2024-02-01T19:08:03.686Z,68.07
2024-02-01T19:10:47.208Z,68.28
2024-02-01T19:13:54.503Z,68.16
2024-02-01T19:16:26.836Z,68.40
2024-02-01T19:19:05.793Z,68.25
2024-02-01T19:21:38.211Z,68.26
2024-02-01T19:24:19.739Z,68.33
2024-02-01T19:26:50.993Z,68.11
2024-02-01T19:29:23.013Z,68.27
2024-02-01T19:31:54.376Z,68.25
2024-02-01T19:34:32.795Z,68.19
2024-02-01T19:37:03.907Z,68.05
2024-02-01T19:39:40.238Z,67.91
2024-02-01T19:42:11.506Z,67.71
2024-02-01T19:44:42.581Z,67.65
2024-02-01T19:47:13.959Z,67.40
2024-02-01T19:49:45.444Z,67.18
2024-02-01T19:52:16.526Z,66.87
2024-02-01T19:54:47.595Z,66.77
2024-02-01T19:57:21.928Z,66.98
2024-02-01T19:59:53.820Z,67.24
2024-02-01T20:02:24.917Z,67.25
2024-02-01T20:04:56.112Z,67.51
2024-02-01T20:07:27.718Z,67.22
2024-02-01T20:09:59.229Z,66.99
2024-02-01T20:12:30.300Z,66.79
2024-02-01T20:15:01.758Z,67.07
2024-02-01T20:17:33.093Z,66.83
2024-02-01T20:20:07.404Z,66.55
2024-02-01T20:22:42.828Z,66.78
2024-02-01T20:25:25.029Z,67.29
2024-02-01T20:27:58.404Z,67.14
2024-02-01T20:30:30.147Z,66.92
2024-02-01T20:33:02.988Z,67.10
2024-02-01T20:35:38.631Z,67.22
2024-02-01T20:38:15.164Z,67.55
2024-02-01T20:40:49.712Z,67.56
2024-02-01T20:43:21.842Z,68.00
2024-02-01T20:45:58.922Z,68.17
2024-02-01T20:48:42.307Z,68.24
2024-02-01T20:51:42.320Z,68.53
2024-02-01T20:54:13.875Z,68.54
2024-02-01T20:56:45.000Z,68.96
2024-02-01T20:59:34.194Z,69.11
2024-02-01T21:02:10.780Z,69.05
2024-02-01T21:04:41.935Z,69.17
2024-02-01T21:07:17.340Z,69.10
2024-02-01T21:09:48.412Z,69.29
2024-02-01T21:12:20.360Z,69.46
2024-02-01T21:14:53.046Z,69.76
2024-02-01T21:17:27.263Z,69.78
2024-02-01T21:19:59.582Z,70.07
2024-02-01T21:22:36.091Z,70.14
2024-02-01T21:25:27.662Z,70.40
2024-02-01T21:27:58.941Z,70.36
2024-02-01T21:30:30.037Z,70.25
2024-02-01T21:33:01.824Z,70.40
2024-02-01T21:35:48.757Z,70.61
2024-02-01T21:38:20.720Z,70.41
2024-02-01T21:40:53.618Z,70.16
2024-02-01T21:43:26.316Z,69.82
2024-02-01T21:46:00.828Z,69.74
2024-02-01T21:48:32.015Z,69.97
2024-02-01T21:51:03.224Z,70.13
2024-02-01T21:53:34.371Z,70.36
2024-02-01T21:56:05.734Z,70.29
2024-02-01T21:58:36.804Z,70.28
2024-02-01T22:01:08.202Z,70.25
2024-02-01T22:03:45.093Z,70.51
2024-02-01T22:06:14.481Z,70.31
2024-02-01T22:08:44.041Z,70.21
2024-02-01T22:11:15.229Z,70.69
2024-02-01T22:13:46.402Z,70.77
2024-02-01T22:16:17.603Z,70.99
2024-02-01T22:18:48.759Z,71.08
2024-02-01T22:21:20.011Z,71.01
2024-02-01T22:23:51.260Z,71.01
2024-02-01T22:26:22.331Z,70.91
2024-02-01T22:28:53.789Z,70.98
2024-02-01T22:31:25.475Z,70.88
2024-02-01T22:33:56.644Z,70.81
2024-02-01T22:36:27.850Z,71.11
2024-02-01T22:38:59.003Z,71.13
2024-02-01T22:41:30.071Z,70.99
2024-02-01T22:44:01.116Z,70.84
2024-02-01T22:46:32.188Z,70.86
2024-02-01T22:49:03.334Z,70.83
2024-02-01T22:51:34.670Z,70.51
2024-02-01T22:54:05.868Z,69.87
2024-02-01T22:56:37.013Z,69.99
2024-02-01T22:59:08.105Z,70.47
2024-02-01T23:01:39.286Z,70.68
2024-02-01T23:04:10.453Z,70.94
2024-02-01T23:06:41.707Z,71.54
2024-02-01T23:09:13.231Z,72.34
2024-02-01T23:11:45.005Z,71.97
2024-02-01T23:14:16.114Z,71.93
2024-02-01T23:16:47.246Z,72.17
2024-02-01T23:19:18.349Z,72.37
2024-02-01T23:21:54.002Z,72.55
2024-02-01T23:24:25.650Z,72.68
2024-02-01T23:26:56.846Z,72.95
2024-02-01T23:29:27.865Z,73.32
2024-02-01T23:31:58.987Z,73.22
2024-02-01T23:34:31.349Z,73.22
2024-02-01T23:37:02.599Z,73.18
2024-02-01T23:39:33.799Z,73.24
2024-02-01T23:42:05.152Z,72.87
2024-02-01T23:44:36.328Z,72.72
2024-02-01T23:47:07.760Z,72.51
2024-02-01T23:49:39.149Z,72.51
2024-02-01T23:52:11.511Z,72.59
2024-02-01T23:54:42.577Z,72.43
2024-02-01T23:57:13.779Z,72.51
2024-02-01T23:59:44.853Z,72.48
